sensor_id;sensor_type;location;lat;lon;timestamp;P1;durP1;ratioP1;P2;durP2;ratioP2
26540;SDS011;14206;50.202;10.948;2024-01-30T00:00:26;4.60;;;3.30;;
26540;SDS011;14206;50.202;10.948;2024-01-30T00:02:53;4.93;;;3.13;;
26540;SDS011;14206;50.202;10.948;2024-01-30T00:05:20;5.28;;;3.25;;
26540;SDS011;14206;50.202;10.948;2024-01-30T00:07:47;5.05;;;3.10;;
26540;SDS011;14206;50.202;10.948;2024-01-30T00:10:14;4.07;;;2.95;;
26540;SDS011;14206;50.202;10.948;2024-01-30T00:12:41;6.07;;;3.33;;
26540;SDS011;14206;50.202;10.948;2024-01-30T00:15:08;6.82;;;3.35;;
26540;SDS011;14206;50.202;10.948;2024-01-30T00:17:36;7.22;;;3.72;;
26540;SDS011;14206;50.202;10.948;2024-01-30T00:20:04;4.85;;;3.10;;
26540;SDS011;14206;50.202;10.948;2024-01-30T00:22:32;5.85;;;3.58;;
26540;SDS011;14206;50.202;10.948;2024-01-30T00:24:59;4.43;;;3.08;;
26540;SDS011;14206;50.202;10.948;2024-01-30T00:27:26;5.13;;;3.40;;
26540;SDS011;14206;50.202;10.948;2024-01-30T00:29:54;5.55;;;3.35;;
26540;SDS011;14206;50.202;10.948;2024-01-30T00:32:21;4.47;;;3.22;;
26540;SDS011;14206;50.202;10.948;2024-01-30T00:34:49;5.47;;;3.60;;
26540;SDS011;14206;50.202;10.948;2024-01-30T00:37:16;4.88;;;3.25;;
26540;SDS011;14206;50.202;10.948;2024-01-30T00:39:43;5.15;;;3.63;;
26540;SDS011;14206;50.202;10.948;2024-01-30T00:42:10;5.75;;;3.50;;
26540;SDS011;14206;50.202;10.948;2024-01-30T00:44:37;5.53;;;3.70;;
26540;SDS011;14206;50.202;10.948;2024-01-30T00:47:05;5.53;;;3.70;;
26540;SDS011;14206;50.202;10.948;2024-01-30T00:49:32;5.43;;;3.40;;
26540;SDS011;14206;50.202;10.948;2024-01-30T00:52:00;4.70;;;3.35;;
26540;SDS011;14206;50.202;10.948;2024-01-30T00:54:27;6.05;;;4.20;;
26540;SDS011;14206;50.202;10.948;2024-01-30T00:56:54;5.00;;;3.30;;
26540;SDS011;14206;50.202;10.948;2024-01-30T00:59:21;6.73;;;4.10;;
26540;SDS011;14206;50.202;10.948;2024-01-30T01:01:47;5.32;;;3.70;;
26540;SDS011;14206;50.202;10.948;2024-01-30T01:04:15;7.18;;;3.90;;
26540;SDS011;14206;50.202;10.948;2024-01-30T01:06:42;5.82;;;4.13;;
26540;SDS011;14206;50.202;10.948;2024-01-30T01:09:11;6.15;;;3.80;;
26540;SDS011;14206;50.202;10.948;2024-01-30T01:11:38;5.68;;;3.65;;
26540;SDS011;14206;50.202;10.948;2024-01-30T01:14:06;6.30;;;3.78;;
26540;SDS011;14206;50.202;10.948;2024-01-30T01:16:33;4.88;;;3.70;;
26540;SDS011;14206;50.202;10.948;2024-01-30T01:19:00;4.68;;;3.42;;
26540;SDS011;14206;50.202;10.948;2024-01-30T01:21:27;6.40;;;3.88;;
26540;SDS011;14206;50.202;10.948;2024-01-30T01:23:54;6.28;;;3.47;;
26540;SDS011;14206;50.202;10.948;2024-01-30T01:26:21;5.75;;;3.60;;
26540;SDS011;14206;50.202;10.948;2024-01-30T01:28:48;4.93;;;3.35;;
26540;SDS011;14206;50.202;10.948;2024-01-30T01:31:15;5.90;;;3.80;;
26540;SDS011;14206;50.202;10.948;2024-01-30T01:33:44;4.60;;;3.38;;
26540;SDS011;14206;50.202;10.948;2024-01-30T01:36:11;4.97;;;3.33;;
26540;SDS011;14206;50.202;10.948;2024-01-30T01:38:38;6.18;;;3.67;;
26540;SDS011;14206;50.202;10.948;2024-01-30T01:41:05;5.10;;;3.58;;
26540;SDS011;14206;50.202;10.948;2024-01-30T01:43:31;4.85;;;3.45;;
26540;SDS011;14206;50.202;10.948;2024-01-30T01:45:58;5.70;;;3.67;;
26540;SDS011;14206;50.202;10.948;2024-01-30T01:48:25;6.38;;;3.90;;
26540;SDS011;14206;50.202;10.948;2024-01-30T01:50:53;7.35;;;4.03;;
26540;SDS011;14206;50.202;10.948;2024-01-30T01:53:20;5.32;;;3.95;;
26540;SDS011;14206;50.202;10.948;2024-01-30T01:55:47;6.30;;;4.20;;
26540;SDS011;14206;50.202;10.948;2024-01-30T01:58:14;6.18;;;3.80;;
26540;SDS011;14206;50.202;10.948;2024-01-30T02:00:42;6.05;;;3.95;;
26540;SDS011;14206;50.202;10.948;2024-01-30T02:03:10;4.95;;;3.92;;
26540;SDS011;14206;50.202;10.948;2024-01-30T02:05:39;5.90;;;3.78;;
26540;SDS011;14206;50.202;10.948;2024-01-30T02:08:07;6.80;;;3.88;;
26540;SDS011;14206;50.202;10.948;2024-01-30T02:10:35;6.30;;;4.00;;
26540;SDS011;14206;50.202;10.948;2024-01-30T02:13:02;5.28;;;3.60;;
26540;SDS011;14206;50.202;10.948;2024-01-30T02:15:29;5.45;;;3.50;;
26540;SDS011;14206;50.202;10.948;2024-01-30T02:17:57;4.70;;;3.30;;
26540;SDS011;14206;50.202;10.948;2024-01-30T02:20:24;6.15;;;3.50;;
26540;SDS011;14206;50.202;10.948;2024-01-30T02:22:55;5.43;;;3.10;;
26540;SDS011;14206;50.202;10.948;2024-01-30T02:25:30;4.32;;;3.10;;
26540;SDS011;14206;50.202;10.948;2024-01-30T02:27:58;5.30;;;3.10;;
26540;SDS011;14206;50.202;10.948;2024-01-30T02:30:25;5.40;;;3.70;;
26540;SDS011;14206;50.202;10.948;2024-01-30T02:32:52;4.72;;;3.22;;
26540;SDS011;14206;50.202;10.948;2024-01-30T02:35:19;4.88;;;3.58;;
26540;SDS011;14206;50.202;10.948;2024-01-30T02:37:46;5.40;;;3.33;;
26540;SDS011;14206;50.202;10.948;2024-01-30T02:40:13;5.00;;;3.47;;
26540;SDS011;14206;50.202;10.948;2024-01-30T02:42:39;4.82;;;3.25;;
26540;SDS011;14206;50.202;10.948;2024-01-30T02:45:08;6.28;;;3.30;;
26540;SDS011;14206;50.202;10.948;2024-01-30T02:47:36;4.95;;;3.22;;
26540;SDS011;14206;50.202;10.948;2024-01-30T02:50:03;4.75;;;3.20;;
26540;SDS011;14206;50.202;10.948;2024-01-30T02:52:30;4.10;;;3.20;;
26540;SDS011;14206;50.202;10.948;2024-01-30T02:54:57;4.90;;;3.20;;
26540;SDS011;14206;50.202;10.948;2024-01-30T02:57:24;6.32;;;3.10;;
26540;SDS011;14206;50.202;10.948;2024-01-30T02:59:51;4.03;;;2.65;;
26540;SDS011;14206;50.202;10.948;2024-01-30T03:02:18;4.22;;;2.85;;
26540;SDS011;14206;50.202;10.948;2024-01-30T03:04:45;4.57;;;3.00;;
26540;SDS011;14206;50.202;10.948;2024-01-30T03:07:13;4.18;;;2.80;;
26540;SDS011;14206;50.202;10.948;2024-01-30T03:09:41;4.97;;;3.42;;
26540;SDS011;14206;50.202;10.948;2024-01-30T03:12:09;5.25;;;2.97;;
26540;SDS011;14206;50.202;10.948;2024-01-30T03:14:36;6.10;;;3.40;;
26540;SDS011;14206;50.202;10.948;2024-01-30T03:17:03;4.00;;;2.90;;
26540;SDS011;14206;50.202;10.948;2024-01-30T03:19:30;4.95;;;3.20;;
26540;SDS011;14206;50.202;10.948;2024-01-30T03:21:58;4.68;;;2.80;;
26540;SDS011;14206;50.202;10.948;2024-01-30T03:24:25;4.13;;;2.95;;
26540;SDS011;14206;50.202;10.948;2024-01-30T03:26:52;3.97;;;2.88;;
26540;SDS011;14206;50.202;10.948;2024-01-30T03:29:19;3.83;;;2.85;;
26540;SDS011;14206;50.202;10.948;2024-01-30T03:31:46;4.03;;;2.97;;
26540;SDS011;14206;50.202;10.948;2024-01-30T03:34:13;4.18;;;2.88;;
26540;SDS011;14206;50.202;10.948;2024-01-30T03:36:41;5.43;;;3.20;;
26540;SDS011;14206;50.202;10.948;2024-01-30T03:39:08;4.85;;;3.28;;
26540;SDS011;14206;50.202;10.948;2024-01-30T03:41:35;5.88;;;3.05;;
26540;SDS011;14206;50.202;10.948;2024-01-30T03:44:02;4.80;;;3.05;;
26540;SDS011;14206;50.202;10.948;2024-01-30T03:46:29;4.97;;;3.03;;
26540;SDS011;14206;50.202;10.948;2024-01-30T03:48:56;4.53;;;3.00;;
26540;SDS011;14206;50.202;10.948;2024-01-30T03:51:23;5.00;;;2.90;;
26540;SDS011;14206;50.202;10.948;2024-01-30T03:53:50;3.90;;;2.63;;
26540;SDS011;14206;50.202;10.948;2024-01-30T03:56:16;4.47;;;2.70;;
26540;SDS011;14206;50.202;10.948;2024-01-30T03:58:43;4.57;;;2.85;;
26540;SDS011;14206;50.202;10.948;2024-01-30T04:01:13;4.25;;;2.78;;
26540;SDS011;14206;50.202;10.948;2024-01-30T04:03:41;6.85;;;2.67;;
26540;SDS011;14206;50.202;10.948;2024-01-30T04:06:10;4.30;;;2.67;;
26540;SDS011;14206;50.202;10.948;2024-01-30T04:08:38;4.82;;;3.08;;
26540;SDS011;14206;50.202;10.948;2024-01-30T04:11:05;4.38;;;2.88;;
26540;SDS011;14206;50.202;10.948;2024-01-30T04:13:32;4.65;;;2.88;;
26540;SDS011;14206;50.202;10.948;2024-01-30T04:16:00;4.05;;;2.53;;
26540;SDS011;14206;50.202;10.948;2024-01-30T04:18:28;5.28;;;3.22;;
26540;SDS011;14206;50.202;10.948;2024-01-30T04:20:55;6.07;;;3.40;;
26540;SDS011;14206;50.202;10.948;2024-01-30T04:23:22;3.65;;;2.75;;
26540;SDS011;14206;50.202;10.948;2024-01-30T04:25:49;5.70;;;3.10;;
26540;SDS011;14206;50.202;10.948;2024-01-30T04:28:15;4.65;;;3.03;;
26540;SDS011;14206;50.202;10.948;2024-01-30T04:30:42;4.18;;;3.00;;
26540;SDS011;14206;50.202;10.948;2024-01-30T04:33:10;3.90;;;2.80;;
26540;SDS011;14206;50.202;10.948;2024-01-30T04:35:37;3.95;;;2.75;;
26540;SDS011;14206;50.202;10.948;2024-01-30T04:38:04;5.20;;;3.13;;
26540;SDS011;14206;50.202;10.948;2024-01-30T04:40:31;4.15;;;2.90;;
26540;SDS011;14206;50.202;10.948;2024-01-30T04:42:57;7.43;;;5.05;;
26540;SDS011;14206;50.202;10.948;2024-01-30T04:45:24;5.30;;;4.43;;
26540;SDS011;14206;50.202;10.948;2024-01-30T04:47:51;5.72;;;3.75;;
26540;SDS011;14206;50.202;10.948;2024-01-30T04:50:18;5.47;;;3.15;;
26540;SDS011;14206;50.202;10.948;2024-01-30T04:52:45;5.38;;;2.97;;
26540;SDS011;14206;50.202;10.948;2024-01-30T04:55:12;9.00;;;6.88;;
26540;SDS011;14206;50.202;10.948;2024-01-30T04:57:39;10.07;;;7.53;;
26540;SDS011;14206;50.202;10.948;2024-01-30T05:00:06;10.40;;;7.78;;
26540;SDS011;14206;50.202;10.948;2024-01-30T05:02:33;9.00;;;6.60;;
26540;SDS011;14206;50.202;10.948;2024-01-30T05:05:00;6.25;;;4.90;;
26540;SDS011;14206;50.202;10.948;2024-01-30T05:07:27;7.38;;;4.28;;
26540;SDS011;14206;50.202;10.948;2024-01-30T05:09:54;5.88;;;4.35;;
26540;SDS011;14206;50.202;10.948;2024-01-30T05:12:25;3.85;;;3.10;;
26540;SDS011;14206;50.202;10.948;2024-01-30T05:14:52;4.70;;;3.55;;
26540;SDS011;14206;50.202;10.948;2024-01-30T05:17:19;5.05;;;3.38;;
26540;SDS011;14206;50.202;10.948;2024-01-30T05:19:46;5.75;;;2.92;;
26540;SDS011;14206;50.202;10.948;2024-01-30T05:22:16;4.82;;;3.17;;
26540;SDS011;14206;50.202;10.948;2024-01-30T05:24:46;4.30;;;3.00;;
26540;SDS011;14206;50.202;10.948;2024-01-30T05:27:15;4.88;;;3.42;;
26540;SDS011;14206;50.202;10.948;2024-01-30T05:29:43;4.70;;;3.33;;
26540;SDS011;14206;50.202;10.948;2024-01-30T05:32:12;4.75;;;3.33;;
26540;SDS011;14206;50.202;10.948;2024-01-30T05:34:40;4.97;;;3.58;;
26540;SDS011;14206;50.202;10.948;2024-01-30T05:37:11;6.78;;;4.43;;
26540;SDS011;14206;50.202;10.948;2024-01-30T05:39:42;5.55;;;4.15;;
26540;SDS011;14206;50.202;10.948;2024-01-30T05:42:10;6.47;;;3.47;;
26540;SDS011;14206;50.202;10.948;2024-01-30T05:44:39;5.30;;;3.30;;
26540;SDS011;14206;50.202;10.948;2024-01-30T05:47:05;4.78;;;3.30;;
26540;SDS011;14206;50.202;10.948;2024-01-30T05:49:32;5.88;;;3.53;;
26540;SDS011;14206;50.202;10.948;2024-01-30T05:51:59;4.32;;;2.92;;
26540;SDS011;14206;50.202;10.948;2024-01-30T05:54:27;4.03;;;2.90;;
26540;SDS011;14206;50.202;10.948;2024-01-30T05:56:53;3.35;;;2.60;;
26540;SDS011;14206;50.202;10.948;2024-01-30T05:59:20;9.20;;;3.58;;
26540;SDS011;14206;50.202;10.948;2024-01-30T06:01:47;8.18;;;3.65;;
26540;SDS011;14206;50.202;10.948;2024-01-30T06:04:15;8.93;;;4.38;;
26540;SDS011;14206;50.202;10.948;2024-01-30T06:06:42;7.28;;;3.42;;
26540;SDS011;14206;50.202;10.948;2024-01-30T06:09:10;7.15;;;3.65;;
26540;SDS011;14206;50.202;10.948;2024-01-30T06:11:36;5.25;;;3.30;;
26540;SDS011;14206;50.202;10.948;2024-01-30T06:14:03;6.35;;;3.63;;
26540;SDS011;14206;50.202;10.948;2024-01-30T06:16:30;6.82;;;4.00;;
26540;SDS011;14206;50.202;10.948;2024-01-30T06:18:57;5.38;;;3.25;;
26540;SDS011;14206;50.202;10.948;2024-01-30T06:21:24;5.78;;;3.20;;
26540;SDS011;14206;50.202;10.948;2024-01-30T06:23:51;7.38;;;3.75;;
26540;SDS011;14206;50.202;10.948;2024-01-30T06:26:18;4.18;;;3.05;;
26540;SDS011;14206;50.202;10.948;2024-01-30T06:28:45;5.00;;;3.17;;
26540;SDS011;14206;50.202;10.948;2024-01-30T06:31:12;4.78;;;3.63;;
26540;SDS011;14206;50.202;10.948;2024-01-30T06:33:39;5.65;;;3.65;;
26540;SDS011;14206;50.202;10.948;2024-01-30T06:36:08;5.88;;;4.00;;
26540;SDS011;14206;50.202;10.948;2024-01-30T06:38:35;6.30;;;3.50;;
26540;SDS011;14206;50.202;10.948;2024-01-30T06:41:02;4.82;;;3.15;;
26540;SDS011;14206;50.202;10.948;2024-01-30T06:43:29;6.38;;;3.50;;
26540;SDS011;14206;50.202;10.948;2024-01-30T06:45:56;6.85;;;4.78;;
26540;SDS011;14206;50.202;10.948;2024-01-30T06:48:23;6.57;;;4.32;;
26540;SDS011;14206;50.202;10.948;2024-01-30T06:50:49;7.00;;;4.40;;
26540;SDS011;14206;50.202;10.948;2024-01-30T06:53:17;6.57;;;4.30;;
26540;SDS011;14206;50.202;10.948;2024-01-30T06:55:43;7.43;;;4.40;;
26540;SDS011;14206;50.202;10.948;2024-01-30T06:58:10;6.82;;;4.05;;
26540;SDS011;14206;50.202;10.948;2024-01-30T07:00:37;6.93;;;4.35;;
26540;SDS011;14206;50.202;10.948;2024-01-30T07:03:04;5.30;;;4.20;;
26540;SDS011;14206;50.202;10.948;2024-01-30T07:05:31;6.45;;;4.53;;
26540;SDS011;14206;50.202;10.948;2024-01-30T07:07:59;6.30;;;4.40;;
26540;SDS011;14206;50.202;10.948;2024-01-30T07:10:26;7.65;;;4.43;;
26540;SDS011;14206;50.202;10.948;2024-01-30T07:12:53;7.00;;;4.38;;
26540;SDS011;14206;50.202;10.948;2024-01-30T07:15:20;8.63;;;4.45;;
26540;SDS011;14206;50.202;10.948;2024-01-30T07:17:47;6.63;;;4.85;;
26540;SDS011;14206;50.202;10.948;2024-01-30T07:20:14;8.15;;;4.78;;
26540;SDS011;14206;50.202;10.948;2024-01-30T07:22:43;8.00;;;5.15;;
26540;SDS011;14206;50.202;10.948;2024-01-30T07:25:11;11.57;;;6.53;;
26540;SDS011;14206;50.202;10.948;2024-01-30T07:27:37;10.10;;;6.45;;
26540;SDS011;14206;50.202;10.948;2024-01-30T07:30:05;8.65;;;5.63;;
26540;SDS011;14206;50.202;10.948;2024-01-30T07:32:32;9.18;;;5.18;;
26540;SDS011;14206;50.202;10.948;2024-01-30T07:34:59;10.02;;;5.65;;
26540;SDS011;14206;50.202;10.948;2024-01-30T07:37:34;8.57;;;5.50;;
26540;SDS011;14206;50.202;10.948;2024-01-30T07:40:02;7.95;;;5.22;;
26540;SDS011;14206;50.202;10.948;2024-01-30T07:42:30;8.10;;;5.68;;
26540;SDS011;14206;50.202;10.948;2024-01-30T07:44:57;8.27;;;5.28;;
26540;SDS011;14206;50.202;10.948;2024-01-30T07:47:24;7.72;;;5.20;;
26540;SDS011;14206;50.202;10.948;2024-01-30T07:49:51;8.20;;;4.97;;
26540;SDS011;14206;50.202;10.948;2024-01-30T07:52:18;7.80;;;5.05;;
26540;SDS011;14206;50.202;10.948;2024-01-30T07:54:45;9.20;;;5.70;;
26540;SDS011;14206;50.202;10.948;2024-01-30T07:57:12;7.72;;;5.25;;
26540;SDS011;14206;50.202;10.948;2024-01-30T07:59:38;7.72;;;5.22;;
26540;SDS011;14206;50.202;10.948;2024-01-30T08:02:05;8.38;;;5.40;;
26540;SDS011;14206;50.202;10.948;2024-01-30T08:04:32;7.78;;;5.20;;
26540;SDS011;14206;50.202;10.948;2024-01-30T08:06:59;9.45;;;5.95;;
26540;SDS011;14206;50.202;10.948;2024-01-30T08:09:26;8.43;;;5.57;;
26540;SDS011;14206;50.202;10.948;2024-01-30T08:11:53;6.68;;;4.82;;
26540;SDS011;14206;50.202;10.948;2024-01-30T08:14:20;7.82;;;5.20;;
26540;SDS011;14206;50.202;10.948;2024-01-30T08:16:46;8.35;;;5.78;;
26540;SDS011;14206;50.202;10.948;2024-01-30T08:19:14;7.43;;;5.70;;
26540;SDS011;14206;50.202;10.948;2024-01-30T08:21:41;8.98;;;5.72;;
26540;SDS011;14206;50.202;10.948;2024-01-30T08:24:08;8.65;;;5.55;;
26540;SDS011;14206;50.202;10.948;2024-01-30T08:26:35;8.55;;;5.75;;
26540;SDS011;14206;50.202;10.948;2024-01-30T08:29:03;8.52;;;5.63;;
26540;SDS011;14206;50.202;10.948;2024-01-30T08:31:30;8.20;;;5.70;;
26540;SDS011;14206;50.202;10.948;2024-01-30T08:33:57;6.88;;;4.80;;
26540;SDS011;14206;50.202;10.948;2024-01-30T08:36:25;7.55;;;5.15;;
26540;SDS011;14206;50.202;10.948;2024-01-30T08:38:52;7.30;;;5.03;;
26540;SDS011;14206;50.202;10.948;2024-01-30T08:41:26;8.47;;;5.90;;
26540;SDS011;14206;50.202;10.948;2024-01-30T08:43:52;8.18;;;5.82;;
26540;SDS011;14206;50.202;10.948;2024-01-30T08:46:20;8.32;;;6.07;;
26540;SDS011;14206;50.202;10.948;2024-01-30T08:48:47;8.77;;;5.75;;
26540;SDS011;14206;50.202;10.948;2024-01-30T08:51:14;8.05;;;5.82;;
26540;SDS011;14206;50.202;10.948;2024-01-30T08:53:42;9.05;;;6.50;;
26540;SDS011;14206;50.202;10.948;2024-01-30T08:56:09;8.48;;;6.05;;
26540;SDS011;14206;50.202;10.948;2024-01-30T08:58:36;9.80;;;6.50;;
26540;SDS011;14206;50.202;10.948;2024-01-30T09:01:03;8.88;;;5.85;;
26540;SDS011;14206;50.202;10.948;2024-01-30T09:03:32;11.05;;;6.85;;
26540;SDS011;14206;50.202;10.948;2024-01-30T09:05:59;10.60;;;6.70;;
26540;SDS011;14206;50.202;10.948;2024-01-30T09:08:26;11.02;;;6.90;;
26540;SDS011;14206;50.202;10.948;2024-01-30T09:10:52;8.27;;;6.38;;
26540;SDS011;14206;50.202;10.948;2024-01-30T09:13:20;10.48;;;7.00;;
26540;SDS011;14206;50.202;10.948;2024-01-30T09:15:46;8.65;;;6.30;;
26540;SDS011;14206;50.202;10.948;2024-01-30T09:18:13;13.30;;;8.52;;
26540;SDS011;14206;50.202;10.948;2024-01-30T09:20:40;66.28;;;28.48;;
26540;SDS011;14206;50.202;10.948;2024-01-30T09:23:08;34.70;;;19.10;;
26540;SDS011;14206;50.202;10.948;2024-01-30T09:25:34;27.50;;;15.48;;
26540;SDS011;14206;50.202;10.948;2024-01-30T09:28:01;17.20;;;10.77;;
26540;SDS011;14206;50.202;10.948;2024-01-30T09:30:29;24.40;;;14.15;;
26540;SDS011;14206;50.202;10.948;2024-01-30T09:32:56;17.90;;;10.65;;
26540;SDS011;14206;50.202;10.948;2024-01-30T09:35:23;19.40;;;12.63;;
26540;SDS011;14206;50.202;10.948;2024-01-30T09:37:49;17.05;;;11.15;;
26540;SDS011;14206;50.202;10.948;2024-01-30T09:40:18;12.27;;;8.45;;
26540;SDS011;14206;50.202;10.948;2024-01-30T09:42:47;15.05;;;10.45;;
26540;SDS011;14206;50.202;10.948;2024-01-30T09:45:20;12.98;;;9.32;;
26540;SDS011;14206;50.202;10.948;2024-01-30T09:47:50;10.85;;;7.80;;
26540;SDS011;14206;50.202;10.948;2024-01-30T09:50:18;8.23;;;6.47;;
26540;SDS011;14206;50.202;10.948;2024-01-30T09:52:46;8.65;;;6.72;;
26540;SDS011;14206;50.202;10.948;2024-01-30T09:55:13;10.30;;;6.72;;
26540;SDS011;14206;50.202;10.948;2024-01-30T09:57:41;9.40;;;6.80;;
26540;SDS011;14206;50.202;10.948;2024-01-30T10:00:08;10.13;;;7.55;;
26540;SDS011;14206;50.202;10.948;2024-01-30T10:02:38;9.65;;;6.72;;
26540;SDS011;14206;50.202;10.948;2024-01-30T10:05:07;9.65;;;6.78;;
26540;SDS011;14206;50.202;10.948;2024-01-30T10:07:34;10.52;;;6.95;;
26540;SDS011;14206;50.202;10.948;2024-01-30T10:10:01;10.35;;;5.90;;
26540;SDS011;14206;50.202;10.948;2024-01-30T10:12:29;7.85;;;5.90;;
26540;SDS011;14206;50.202;10.948;2024-01-30T10:14:56;7.65;;;5.93;;
26540;SDS011;14206;50.202;10.948;2024-01-30T10:17:24;7.07;;;5.60;;
26540;SDS011;14206;50.202;10.948;2024-01-30T10:19:59;10.20;;;5.68;;
26540;SDS011;14206;50.202;10.948;2024-01-30T10:22:27;8.75;;;6.40;;
26540;SDS011;14206;50.202;10.948;2024-01-30T10:24:54;8.65;;;6.80;;
26540;SDS011;14206;50.202;10.948;2024-01-30T10:27:27;8.77;;;6.63;;
26540;SDS011;14206;50.202;10.948;2024-01-30T10:29:55;10.63;;;7.40;;
26540;SDS011;14206;50.202;10.948;2024-01-30T10:32:23;10.35;;;7.18;;
26540;SDS011;14206;50.202;10.948;2024-01-30T10:34:51;10.43;;;7.18;;
26540;SDS011;14206;50.202;10.948;2024-01-30T10:37:19;10.13;;;7.38;;
26540;SDS011;14206;50.202;10.948;2024-01-30T10:39:47;8.32;;;6.25;;
26540;SDS011;14206;50.202;10.948;2024-01-30T10:42:17;10.75;;;6.57;;
26540;SDS011;14206;50.202;10.948;2024-01-30T10:44:56;10.15;;;7.25;;
26540;SDS011;14206;50.202;10.948;2024-01-30T10:47:35;10.73;;;6.80;;
26540;SDS011;14206;50.202;10.948;2024-01-30T10:50:05;8.00;;;5.93;;
26540;SDS011;14206;50.202;10.948;2024-01-30T10:52:35;9.10;;;6.13;;
26540;SDS011;14206;50.202;10.948;2024-01-30T10:55:03;10.07;;;6.45;;
26540;SDS011;14206;50.202;10.948;2024-01-30T10:57:34;10.07;;;6.13;;
26540;SDS011;14206;50.202;10.948;2024-01-30T11:00:06;7.75;;;5.60;;
26540;SDS011;14206;50.202;10.948;2024-01-30T11:02:47;9.15;;;6.70;;
26540;SDS011;14206;50.202;10.948;2024-01-30T11:05:14;12.13;;;7.70;;
26540;SDS011;14206;50.202;10.948;2024-01-30T11:07:49;7.93;;;5.78;;
26540;SDS011;14206;50.202;10.948;2024-01-30T11:10:16;10.07;;;6.85;;
26540;SDS011;14206;50.202;10.948;2024-01-30T11:12:45;9.05;;;6.45;;
26540;SDS011;14206;50.202;10.948;2024-01-30T11:15:13;8.35;;;6.68;;
26540;SDS011;14206;50.202;10.948;2024-01-30T11:17:51;7.22;;;5.65;;
26540;SDS011;14206;50.202;10.948;2024-01-30T11:22:50;12.35;;;7.80;;
26540;SDS011;14206;50.202;10.948;2024-01-30T11:25:22;10.90;;;6.78;;
26540;SDS011;14206;50.202;10.948;2024-01-30T11:27:50;9.13;;;6.55;;
26540;SDS011;14206;50.202;10.948;2024-01-30T11:33:05;9.77;;;6.80;;
26540;SDS011;14206;50.202;10.948;2024-01-30T11:35:38;9.43;;;6.63;;
26540;SDS011;14206;50.202;10.948;2024-01-30T11:38:07;8.38;;;6.57;;
26540;SDS011;14206;50.202;10.948;2024-01-30T11:40:36;8.60;;;6.30;;
26540;SDS011;14206;50.202;10.948;2024-01-30T11:43:05;10.32;;;6.50;;
26540;SDS011;14206;50.202;10.948;2024-01-30T11:45:33;10.55;;;7.18;;
26540;SDS011;14206;50.202;10.948;2024-01-30T11:48:02;8.88;;;6.63;;
26540;SDS011;14206;50.202;10.948;2024-01-30T11:50:33;8.57;;;5.82;;
26540;SDS011;14206;50.202;10.948;2024-01-30T11:53:00;9.77;;;7.43;;
26540;SDS011;14206;50.202;10.948;2024-01-30T11:55:31;9.63;;;7.00;;
26540;SDS011;14206;50.202;10.948;2024-01-30T11:58:00;10.02;;;7.20;;
26540;SDS011;14206;50.202;10.948;2024-01-30T12:00:28;8.43;;;6.65;;
26540;SDS011;14206;50.202;10.948;2024-01-30T12:02:57;7.88;;;6.40;;
26540;SDS011;14206;50.202;10.948;2024-01-30T12:05:27;9.52;;;6.38;;
26540;SDS011;14206;50.202;10.948;2024-01-30T12:07:55;8.35;;;5.88;;
26540;SDS011;14206;50.202;10.948;2024-01-30T12:10:26;8.93;;;5.97;;
26540;SDS011;14206;50.202;10.948;2024-01-30T12:12:53;8.15;;;5.93;;
26540;SDS011;14206;50.202;10.948;2024-01-30T12:15:21;7.20;;;5.60;;
26540;SDS011;14206;50.202;10.948;2024-01-30T12:17:49;7.78;;;5.78;;
26540;SDS011;14206;50.202;10.948;2024-01-30T12:20:19;7.53;;;5.80;;
26540;SDS011;14206;50.202;10.948;2024-01-30T12:22:49;7.55;;;5.22;;
26540;SDS011;14206;50.202;10.948;2024-01-30T12:25:17;7.90;;;5.60;;
26540;SDS011;14206;50.202;10.948;2024-01-30T12:27:49;7.50;;;5.43;;
26540;SDS011;14206;50.202;10.948;2024-01-30T12:30:17;8.07;;;5.68;;
26540;SDS011;14206;50.202;10.948;2024-01-30T12:32:47;6.97;;;4.93;;
26540;SDS011;14206;50.202;10.948;2024-01-30T12:35:18;8.68;;;5.72;;
26540;SDS011;14206;50.202;10.948;2024-01-30T12:37:46;6.90;;;5.32;;
26540;SDS011;14206;50.202;10.948;2024-01-30T12:40:14;8.68;;;5.85;;
26540;SDS011;14206;50.202;10.948;2024-01-30T12:42:42;7.65;;;5.20;;
26540;SDS011;14206;50.202;10.948;2024-01-30T12:45:15;7.88;;;5.55;;
26540;SDS011;14206;50.202;10.948;2024-01-30T12:47:46;7.55;;;5.45;;
26540;SDS011;14206;50.202;10.948;2024-01-30T12:50:14;9.88;;;7.13;;
26540;SDS011;14206;50.202;10.948;2024-01-30T12:52:42;10.13;;;7.53;;
26540;SDS011;14206;50.202;10.948;2024-01-30T12:55:14;8.60;;;5.97;;
26540;SDS011;14206;50.202;10.948;2024-01-30T12:57:41;9.00;;;6.82;;
26540;SDS011;14206;50.202;10.948;2024-01-30T13:00:09;10.50;;;7.25;;
26540;SDS011;14206;50.202;10.948;2024-01-30T13:02:36;9.30;;;6.55;;
26540;SDS011;14206;50.202;10.948;2024-01-30T13:05:03;9.27;;;5.90;;
26540;SDS011;14206;50.202;10.948;2024-01-30T13:07:31;8.05;;;5.32;;
26540;SDS011;14206;50.202;10.948;2024-01-30T13:09:58;7.63;;;5.45;;
26540;SDS011;14206;50.202;10.948;2024-01-30T13:12:30;8.48;;;6.10;;
26540;SDS011;14206;50.202;10.948;2024-01-30T13:14:59;6.38;;;5.07;;
26540;SDS011;14206;50.202;10.948;2024-01-30T13:17:31;7.47;;;5.47;;
26540;SDS011;14206;50.202;10.948;2024-01-30T13:19:59;8.77;;;6.50;;
26540;SDS011;14206;50.202;10.948;2024-01-30T13:22:36;9.07;;;5.72;;
26540;SDS011;14206;50.202;10.948;2024-01-30T13:25:05;8.57;;;5.53;;
26540;SDS011;14206;50.202;10.948;2024-01-30T13:27:33;6.55;;;4.88;;
26540;SDS011;14206;50.202;10.948;2024-01-30T13:30:00;7.43;;;5.55;;
26540;SDS011;14206;50.202;10.948;2024-01-30T13:32:27;5.78;;;4.70;;
26540;SDS011;14206;50.202;10.948;2024-01-30T13:34:54;8.52;;;5.82;;
26540;SDS011;14206;50.202;10.948;2024-01-30T13:37:22;8.00;;;6.35;;
26540;SDS011;14206;50.202;10.948;2024-01-30T13:39:49;10.48;;;7.35;;
26540;SDS011;14206;50.202;10.948;2024-01-30T13:42:16;11.73;;;7.55;;
26540;SDS011;14206;50.202;10.948;2024-01-30T13:44:43;9.80;;;7.13;;
26540;SDS011;14206;50.202;10.948;2024-01-30T13:47:10;9.40;;;6.53;;
26540;SDS011;14206;50.202;10.948;2024-01-30T13:49:37;7.25;;;5.43;;
26540;SDS011;14206;50.202;10.948;2024-01-30T13:52:04;6.15;;;4.80;;
26540;SDS011;14206;50.202;10.948;2024-01-30T13:54:31;7.32;;;5.47;;
26540;SDS011;14206;50.202;10.948;2024-01-30T13:56:58;7.88;;;5.90;;
26540;SDS011;14206;50.202;10.948;2024-01-30T13:59:25;7.72;;;5.82;;
26540;SDS011;14206;50.202;10.948;2024-01-30T14:01:52;8.30;;;6.30;;
26540;SDS011;14206;50.202;10.948;2024-01-30T14:04:19;8.15;;;5.75;;
26540;SDS011;14206;50.202;10.948;2024-01-30T14:06:46;7.35;;;5.40;;
26540;SDS011;14206;50.202;10.948;2024-01-30T14:09:26;6.53;;;4.90;;
26540;SDS011;14206;50.202;10.948;2024-01-30T14:11:52;5.82;;;4.80;;
26540;SDS011;14206;50.202;10.948;2024-01-30T14:14:19;8.43;;;6.13;;
26540;SDS011;14206;50.202;10.948;2024-01-30T14:16:46;7.45;;;5.68;;
26540;SDS011;14206;50.202;10.948;2024-01-30T14:19:13;6.68;;;5.20;;
26540;SDS011;14206;50.202;10.948;2024-01-30T14:21:40;9.05;;;5.60;;
26540;SDS011;14206;50.202;10.948;2024-01-30T14:24:08;7.10;;;5.60;;
26540;SDS011;14206;50.202;10.948;2024-01-30T14:26:35;7.20;;;5.47;;
26540;SDS011;14206;50.202;10.948;2024-01-30T14:29:02;6.57;;;5.03;;
26540;SDS011;14206;50.202;10.948;2024-01-30T14:31:29;9.38;;;6.00;;
26540;SDS011;14206;50.202;10.948;2024-01-30T14:33:56;9.90;;;5.68;;
26540;SDS011;14206;50.202;10.948;2024-01-30T14:36:24;9.25;;;5.47;;
26540;SDS011;14206;50.202;10.948;2024-01-30T14:38:54;9.23;;;5.57;;
26540;SDS011;14206;50.202;10.948;2024-01-30T14:41:21;7.32;;;5.55;;